Time;durP1;ratioP1;P1;durP2;ratioP2;P2;SDS_P1;SDS_P2;PMS_P1;PMS_P2;Temp;Humidity;BMP_temperature;BMP_pressure;BME280_temperature;BME280_humidity;BME280_pressure;Samples;Min_cycle;Max_cycle;Signal;HPM_P1;HPM_P2
2022/06/02 00:01:16;;;;;;;3.60;2.33;;;19.70;40.80;;;;;;5053113;28;20474;-89
2022/06/02 00:03:53;;;;;;;2.83;1.77;;;19.70;41.40;;;;;;5075115;28;20455;-89
2022/06/02 00:06:36;;;;;;;4.73;2.20;;;19.60;40.80;;;;;;5091527;28;20458;-88
2022/06/02 00:09:12;;;;;;;2.17;1.97;;;19.60;41.00;;;;;;5072528;28;20451;-87
2022/06/02 00:11:53;;;;;;;2.17;1.93;;;19.60;40.90;;;;;;5075380;28;20455;-89
2022/06/02 00:14:24;;;;;;;1.83;1.73;;;19.50;41.10;;;;;;5054613;28;20965;-90
2022/06/02 00:16:58;;;;;;;2.03;1.80;;;19.50;40.60;;;;;;5059059;28;20551;-87
2022/06/02 00:19:35;;;;;;;2.20;2.10;;;19.40;40.50;;;;;;5065073;28;20477;-88
2022/06/02 00:22:09;;;;;;;2.77;2.00;;;19.30;41.50;;;;;;5072065;28;20447;-89
2022/06/02 00:24:44;;;;;;;3.53;2.20;;;19.30;41.40;;;;;;5059276;28;21219;-89
2022/06/02 00:27:20;;;;;;;3.77;2.10;;;19.30;41.30;;;;;;5059278;28;20438;-89
2022/06/02 00:29:57;;;;;;;2.20;2.10;;;19.10;41.70;;;;;;5071060;28;20497;-88
2022/06/02 00:32:32;;;;;;;1.70;1.60;;;19.10;41.80;;;;;;5062535;28;21045;-88
2022/06/02 00:35:14;;;;;;;2.37;2.17;;;19.10;42.00;;;;;;5063680;28;20451;-88
2022/06/02 00:37:48;;;;;;;1.70;1.60;;;19.10;42.00;;;;;;5040364;28;21106;-89
2022/06/02 00:40:16;;;;;;;4.60;1.97;;;19.00;41.70;;;;;;5071366;28;20470;-89
2022/06/02 00:42:57;;;;;;;4.10;2.00;;;19.10;41.60;;;;;;5058867;28;20444;-88
2022/06/02 00:45:24;;;;;;;2.30;2.00;;;18.90;42.10;;;;;;5070144;28;20439;-88
2022/06/02 00:48:02;;;;;;;2.90;2.10;;;18.80;42.20;;;;;;5065251;28;20462;-89
2022/06/02 00:50:56;;;;;;;3.10;2.67;;;18.60;42.20;;;;;;5070490;28;20475;-88
2022/06/02 00:57:30;;;;;;;2.23;2.03;;;18.50;42.70;;;;;;5080265;28;20450;-88
2022/06/02 00:59:32;;;;;;;2.13;2.03;;;18.40;42.40;;;;;;5080702;28;20459;-89
2022/06/02 01:01:59;;;;;;;2.20;2.10;;;18.40;42.50;;;;;;5071310;28;20439;-87
2022/06/02 01:04:27;;;;;;;4.33;2.03;;;18.50;42.70;;;;;;5088340;28;20876;-87
2022/06/02 01:07:08;;;;;;;2.23;2.03;;;18.50;42.80;;;;;;5090239;28;21119;-87
2022/06/02 01:09:51;;;;;;;2.17;2.00;;;18.50;43.00;;;;;;5089998;28;20471;-88
2022/06/02 01:12:30;;;;;;;4.13;2.00;;;18.30;43.20;;;;;;5073077;28;20833;-88
2022/06/02 01:15:05;;;;;;;7.00;2.27;;;18.40;43.10;;;;;;5063972;28;20451;-88
2022/06/02 01:17:47;;;;;;;2.43;2.20;;;18.40;43.10;;;;;;5086986;28;20485;-88
2022/06/02 01:20:47;;;;;;;1.90;1.80;;;18.40;43.00;;;;;;5058267;28;20498;-87
2022/06/02 01:23:53;;;;;;;2.77;2.40;;;18.30;42.70;;;;;;5077008;28;20962;-88
2022/06/02 01:26:51;;;;;;;2.40;2.30;;;18.20;43.70;;;;;;5076606;28;20466;-87
2022/06/02 01:29:43;;;;;;;2.60;2.40;;;18.00;44.60;;;;;;5045953;28;20458;-88
2022/06/02 01:32:15;;;;;;;2.07;1.93;;;18.00;44.60;;;;;;5095397;28;20447;-88
2022/06/02 01:35:04;;;;;;;2.40;2.20;;;18.10;44.50;;;;;;5078840;28;20993;-87
2022/06/02 01:37:38;;;;;;;2.77;2.57;;;18.10;44.70;;;;;;5092245;28;20872;-88
2022/06/02 01:40:19;;;;;;;2.77;2.23;;;18.00;44.90;;;;;;5073742;28;20471;-88
2022/06/02 01:42:55;;;;;;;2.43;2.20;;;18.00;44.70;;;;;;5060134;28;20455;-87
2022/06/02 01:45:45;;;;;;;2.23;2.03;;;18.00;44.60;;;;;;5061325;28;20436;-88
2022/06/02 01:48:20;;;;;;;2.40;2.20;;;17.90;44.60;;;;;;5066192;28;20470;-89
2022/06/02 01:50:56;;;;;;;2.17;2.07;;;17.80;45.00;;;;;;5074273;28;20463;-89
2022/06/02 01:53:34;;;;;;;3.50;2.50;;;17.80;45.00;;;;;;5060967;28;20442;-88
2022/06/02 01:56:15;;;;;;;4.93;2.50;;;17.80;44.90;;;;;;5076343;28;20480;-89
2022/06/02 01:58:56;;;;;;;2.87;2.67;;;17.70;45.00;;;;;;5094059;28;20440;-88
2022/06/02 02:01:33;;;;;;;4.17;2.83;;;17.30;45.30;;;;;;5066875;28;21185;-88
2022/06/02 02:04:16;;;;;;;3.60;3.30;;;17.10;45.70;;;;;;5062590;28;20458;-88
2022/06/02 02:06:52;;;;;;;4.13;3.60;;;16.90;46.30;;;;;;5074343;28;20456;-88
2022/06/02 02:09:25;;;;;;;3.17;2.97;;;16.80;46.60;;;;;;5095478;28;20819;-87
2022/06/02 02:11:54;;;;;;;3.53;3.23;;;17.00;46.20;;;;;;5059257;28;20458;-88
2022/06/02 02:14:49;;;;;;;3.80;3.50;;;17.00;45.60;;;;;;5053339;28;20455;-87
2022/06/02 02:17:40;;;;;;;5.30;3.67;;;17.10;45.40;;;;;;5075124;28;20943;-88
2022/06/02 02:20:21;;;;;;;3.13;2.83;;;17.10;45.50;;;;;;5060918;28;20839;-88
2022/06/02 02:22:55;;;;;;;4.27;3.70;;;17.00;45.70;;;;;;5092356;28;21377;-88
2022/06/02 02:25:29;;;;;;;3.70;3.40;;;17.00;45.60;;;;;;5074478;28;20466;-88
2022/06/02 02:28:05;;;;;;;6.90;2.90;;;17.00;45.60;;;;;;5075864;28;21217;-88
2022/06/02 02:30:43;;;;;;;7.70;3.50;;;16.90;46.00;;;;;;5073631;28;20511;-88
2022/06/02 02:33:21;;;;;;;4.57;2.83;;;16.80;46.30;;;;;;5075539;28;21002;-88
2022/06/02 02:36:00;;;;;;;3.73;3.07;;;16.80;46.20;;;;;;5074971;28;20451;-89
2022/06/02 02:38:36;;;;;;;6.00;2.90;;;16.90;46.20;;;;;;5092492;28;20938;-88
2022/06/02 02:41:07;;;;;;;4.53;2.77;;;16.90;46.10;;;;;;5073598;28;20482;-88
2022/06/02 02:43:40;;;;;;;3.97;2.70;;;16.90;45.90;;;;;;5072707;28;21301;-87
2022/06/02 02:46:13;;;;;;;3.10;2.90;;;16.90;45.70;;;;;;5090724;28;20431;-89
2022/06/02 02:48:51;;;;;;;2.97;2.67;;;16.90;45.70;;;;;;5056354;28;20534;-87
2022/06/02 02:51:30;;;;;;;3.00;2.70;;;16.80;45.50;;;;;;5040164;28;20469;-88
2022/06/02 02:54:05;;;;;;;2.80;2.60;;;16.90;45.80;;;;;;5093294;28;20454;-87
2022/06/02 02:56:39;;;;;;;2.90;2.70;;;16.80;45.60;;;;;;5069829;28;21140;-88
2022/06/02 02:59:15;;;;;;;3.60;2.93;;;16.80;45.50;;;;;;5085614;28;20447;-88
2022/06/02 03:01:51;;;;;;;3.03;2.73;;;16.80;45.30;;;;;;5076603;28;20533;-87
2022/06/02 03:04:32;;;;;;;2.50;2.30;;;16.80;45.40;;;;;;5091350;28;20469;-88
2022/06/02 03:07:00;;;;;;;5.70;2.70;;;16.70;45.20;;;;;;5051655;28;20482;-88
2022/06/02 03:09:34;;;;;;;2.80;2.60;;;16.70;45.70;;;;;;5063048;28;20551;-89
2022/06/02 03:12:09;;;;;;;2.97;2.77;;;16.60;45.90;;;;;;5059377;28;20788;-88
2022/06/02 03:14:52;;;;;;;3.27;2.87;;;16.50;46.00;;;;;;5092830;28;20520;-89
2022/06/02 03:17:36;;;;;;;2.80;2.60;;;16.50;46.30;;;;;;5081377;28;20451;-88
2022/06/02 03:20:10;;;;;;;7.13;2.70;;;16.50;46.50;;;;;;5059166;28;20542;-86
2022/06/02 03:22:54;;;;;;;2.90;2.70;;;16.50;46.30;;;;;;5065467;28;20448;-87
2022/06/02 03:25:30;;;;;;;2.73;2.40;;;16.40;46.20;;;;;;5058919;28;20447;-88
2022/06/02 03:28:16;;;;;;;3.20;2.87;;;16.40;46.30;;;;;;5091035;28;20454;-86
2022/06/02 03:30:48;;;;;;;3.43;2.60;;;16.30;46.50;;;;;;5039685;28;20486;-88
2022/06/02 03:33:47;;;;;;;3.20;2.90;;;16.20;46.60;;;;;;5043507;28;20469;-88
2022/06/02 03:36:23;;;;;;;3.07;2.87;;;16.30;46.50;;;;;;5058412;28;20467;-88
2022/06/02 03:39:02;;;;;;;3.00;2.80;;;16.30;46.20;;;;;;5074756;28;20471;-87
2022/06/02 03:41:48;;;;;;;3.70;2.97;;;16.20;46.40;;;;;;5072502;28;20444;-88
2022/06/02 03:44:22;;;;;;;3.47;3.17;;;16.20;46.70;;;;;;5070076;28;20454;-88
2022/06/02 03:47:07;;;;;;;3.20;3.00;;;15.90;47.10;;;;;;5070132;28;20446;-88
2022/06/02 03:49:56;;;;;;;5.00;2.63;;;15.60;47.80;;;;;;5059270;28;20695;-88
2022/06/02 03:52:40;;;;;;;4.00;3.07;;;15.30;48.70;;;;;;5070514;28;20458;-88
2022/06/02 03:55:28;;;;;;;3.00;2.60;;;15.20;49.20;;;;;;5072027;28;20462;-88
2022/06/02 03:58:11;;;;;;;4.17;3.23;;;15.40;49.00;;;;;;5049279;28;20468;-90
2022/06/02 04:00:46;;;;;;;3.27;3.03;;;15.60;48.30;;;;;;5072966;28;20475;-87
2022/06/02 04:03:28;;;;;;;3.17;2.87;;;15.80;47.90;;;;;;5064832;28;20435;-88
2022/06/02 04:06:06;;;;;;;3.20;2.97;;;15.90;47.70;;;;;;5090961;28;20456;-87
2022/06/02 04:09:01;;;;;;;3.00;2.70;;;15.90;47.90;;;;;;5075966;28;20521;-87
2022/06/02 04:14:43;;;;;;;3.67;2.60;;;15.90;48.20;;;;;;5075430;28;20484;-88
2022/06/02 04:17:20;;;;;;;3.50;3.17;;;16.00;48.30;;;;;;5058184;28;20466;-89
2022/06/02 04:23:11;;;;;;;3.43;3.13;;;16.00;48.00;;;;;;5075882;28;20443;-88
2022/06/02 04:25:48;;;;;;;3.10;2.90;;;16.00;47.80;;;;;;5076180;28;20934;-87
2022/06/02 04:28:25;;;;;;;3.40;2.87;;;16.00;48.00;;;;;;5071906;28;20450;-88
2022/06/02 04:31:06;;;;;;;3.80;3.40;;;16.00;48.20;;;;;;5067238;28;21064;-89
2022/06/02 04:33:36;;;;;;;3.00;2.80;;;16.00;48.50;;;;;;5069078;28;20534;-88
2022/06/02 04:36:14;;;;;;;3.40;3.10;;;16.00;48.60;;;;;;5069410;28;20782;-87
2022/06/02 04:38:50;;;;;;;3.40;3.10;;;16.00;48.60;;;;;;5070646;28;20528;-89
2022/06/02 04:41:24;;;;;;;3.47;3.17;;;16.00;48.60;;;;;;5084928;28;20521;-89
2022/06/02 04:44:02;;;;;;;3.30;3.00;;;16.00;49.10;;;;;;5067458;28;20447;-89
2022/06/02 04:46:42;;;;;;;3.30;3.10;;;16.00;49.00;;;;;;5085995;28;20453;-89
2022/06/02 04:49:18;;;;;;;3.50;3.13;;;16.00;48.70;;;;;;5038130;28;20855;-88
2022/06/02 04:51:52;;;;;;;3.60;3.30;;;16.10;48.70;;;;;;5063073;28;20444;-87
2022/06/02 04:54:29;;;;;;;3.77;3.47;;;16.10;48.50;;;;;;5049919;28;20434;-90
2022/06/02 04:57:03;;;;;;;3.87;3.40;;;16.10;49.00;;;;;;5072817;28;20458;-89
2022/06/02 04:59:39;;;;;;;3.47;3.17;;;16.10;49.20;;;;;;5090348;28;20987;-88
2022/06/02 05:02:22;;;;;;;4.07;3.60;;;16.10;49.60;;;;;;5045153;28;20443;-87
2022/06/02 05:04:54;;;;;;;3.70;3.40;;;16.00;49.60;;;;;;5063924;28;20542;-88
2022/06/02 05:07:30;;;;;;;4.20;3.63;;;16.00;49.70;;;;;;5088415;28;20478;-88
2022/06/02 05:10:09;;;;;;;3.63;3.30;;;15.70;50.30;;;;;;5055660;28;20493;-88
2022/06/02 05:12:51;;;;;;;4.20;3.53;;;15.70;50.00;;;;;;5065840;28;20438;-89
2022/06/02 05:15:32;;;;;;;3.70;3.40;;;15.80;51.00;;;;;;5074389;28;20821;-89
2022/06/02 05:18:22;;;;;;;4.30;4.00;;;15.90;50.20;;;;;;5081644;28;20932;-88
2022/06/02 05:21:15;;;;;;;3.73;3.00;;;16.00;49.90;;;;;;5046933;28;20564;-89
2022/06/02 05:24:07;;;;;;;3.63;3.43;;;16.10;49.80;;;;;;5060423;28;20839;-87
2022/06/02 05:27:05;;;;;;;3.03;2.83;;;16.20;49.80;;;;;;5054878;28;20479;-88
2022/06/02 05:29:52;;;;;;;4.00;3.60;;;16.30;50.00;;;;;;5072375;28;20533;-86
2022/06/02 05:32:52;;;;;;;4.73;3.77;;;16.30;49.60;;;;;;5088366;28;20445;-89
2022/06/02 05:35:49;;;;;;;4.17;3.87;;;16.30;49.60;;;;;;5069738;28;21002;-88
2022/06/02 05:38:36;;;;;;;4.00;3.70;;;16.40;49.90;;;;;;5060176;28;21066;-87
2022/06/02 05:41:12;;;;;;;4.70;3.40;;;16.50;49.90;;;;;;5057093;28;20466;-87
2022/06/02 05:43:45;;;;;;;5.40;4.10;;;16.20;49.30;;;;;;5074493;28;20445;-88
2022/06/02 05:46:28;;;;;;;5.37;4.40;;;15.80;49.80;;;;;;5067441;28;20447;-88
2022/06/02 05:49:14;;;;;;;8.50;3.77;;;15.90;50.70;;;;;;5074972;28;20536;-88
2022/06/02 05:51:53;;;;;;;6.13;4.07;;;15.80;49.80;;;;;;5045399;28;20820;-89
2022/06/02 05:54:39;;;;;;;4.47;3.70;;;16.20;50.70;;;;;;5067765;28;20572;-88
2022/06/02 05:57:22;;;;;;;3.63;3.33;;;16.40;49.90;;;;;;5071921;28;20491;-90
2022/06/02 06:00:11;;;;;;;9.23;3.60;;;16.50;50.20;;;;;;5052473;28;20477;-88
2022/06/02 06:03:04;;;;;;;3.07;2.87;;;16.50;50.00;;;;;;5080038;28;20451;-88
2022/06/02 06:05:39;;;;;;;10.57;3.57;;;16.60;49.40;;;;;;5057483;28;20455;-89
2022/06/02 06:08:29;;;;;;;7.00;3.60;;;16.80;50.30;;;;;;5074191;28;20438;-89
2022/06/02 06:11:09;;;;;;;3.20;2.90;;;16.80;48.90;;;;;;5057331;28;20488;-88
2022/06/02 06:14:05;;;;;;;9.10;3.33;;;16.80;48.90;;;;;;5056122;28;20780;-88
2022/06/02 06:16:39;;;;;;;7.03;3.93;;;17.00;48.70;;;;;;5056355;28;20453;-88
2022/06/02 06:19:24;;;;;;;3.20;2.90;;;17.20;47.80;;;;;;5069183;28;20436;-90
2022/06/02 06:22:09;;;;;;;3.10;2.90;;;17.10;48.50;;;;;;5070590;28;20451;-90
2022/06/02 06:25:02;;;;;;;6.70;3.17;;;17.10;48.10;;;;;;5051133;28;20498;-90
2022/06/02 06:27:35;;;;;;;5.33;2.90;;;17.30;47.80;;;;;;5063952;28;20452;-88
2022/06/02 06:30:19;;;;;;;5.40;3.00;;;17.40;48.10;;;;;;5085033;28;21014;-88
2022/06/02 06:33:02;;;;;;;3.60;2.93;;;17.40;48.10;;;;;;5052179;28;20448;-88
2022/06/02 06:35:46;;;;;;;3.57;3.30;;;17.60;47.50;;;;;;5052675;28;20961;-87
2022/06/02 06:38:30;;;;;;;7.20;3.27;;;17.70;48.10;;;;;;5047460;28;21065;-87
2022/06/02 06:41:13;;;;;;;3.90;3.60;;;17.80;47.40;;;;;;5070653;28;21123;-88
2022/06/02 06:44:01;;;;;;;6.20;3.50;;;18.00;47.20;;;;;;5053685;28;20451;-89
2022/06/02 06:46:37;;;;;;;3.37;3.07;;;18.10;46.90;;;;;;5069869;28;20448;-91
2022/06/02 06:49:15;;;;;;;6.50;3.20;;;18.20;46.80;;;;;;5068212;28;20439;-88
2022/06/02 06:51:54;;;;;;;3.70;3.17;;;18.30;46.90;;;;;;5061980;28;20552;-89
2022/06/02 06:54:34;;;;;;;4.87;3.20;;;18.60;46.70;;;;;;5061828;28;20500;-89
2022/06/02 06:57:07;;;;;;;4.50;3.73;;;18.70;46.30;;;;;;5086422;28;20443;-87
2022/06/02 06:59:49;;;;;;;3.27;2.97;;;18.60;46.50;;;;;;5088310;28;20474;-90
2022/06/02 07:02:29;;;;;;;4.13;3.83;;;18.90;47.10;;;;;;5071650;28;20448;-88
2022/06/02 07:05:03;;;;;;;3.27;3.00;;;19.10;46.00;;;;;;5057050;28;20465;-90
2022/06/02 07:07:39;;;;;;;4.30;3.57;;;19.20;46.50;;;;;;5089590;28;20446;-89
2022/06/02 07:10:14;;;;;;;5.73;3.90;;;19.20;45.60;;;;;;5058638;28;20468;-88
2022/06/02 07:12:51;;;;;;;4.70;3.53;;;19.20;45.10;;;;;;5065078;28;20443;-87
2022/06/02 07:15:28;;;;;;;5.37;3.77;;;19.30;45.30;;;;;;5058912;28;20447;-90
2022/06/02 07:18:02;;;;;;;6.53;3.10;;;19.40;44.20;;;;;;5068545;28;20465;-89
2022/06/02 07:20:35;;;;;;;3.43;3.13;;;19.80;44.90;;;;;;5061030;28;20471;-89
2022/06/02 07:23:10;;;;;;;2.87;2.67;;;20.10;44.30;;;;;;5084684;28;21071;-89
2022/06/02 07:25:51;;;;;;;4.20;3.40;;;20.30;44.30;;;;;;5068945;28;20908;-89
2022/06/02 07:28:30;;;;;;;4.00;3.37;;;20.60;43.70;;;;;;5068087;28;20447;-88
2022/06/02 07:31:11;;;;;;;3.93;3.60;;;20.90;43.40;;;;;;5043812;28;20481;-89
2022/06/02 07:33:52;;;;;;;3.23;3.03;;;20.90;41.70;;;;;;5088684;28;20454;-87
2022/06/02 07:36:35;;;;;;;3.10;2.80;;;21.00;41.80;;;;;;5067674;28;20538;-88
2022/06/02 07:39:38;;;;;;;4.00;3.33;;;21.10;41.20;;;;;;5053661;28;20451;-89
2022/06/02 07:42:32;;;;;;;3.67;3.33;;;21.10;39.90;;;;;;5038917;28;20444;-88
2022/06/02 07:45:23;;;;;;;3.83;3.50;;;21.20;39.20;;;;;;5083080;28;20447;-88
2022/06/02 07:48:22;;;;;;;4.20;3.80;;;21.30;38.70;;;;;;5089337;28;21211;-89
2022/06/02 07:50:56;;;;;;;4.27;3.80;;;21.40;38.30;;;;;;5069810;28;20954;-87
2022/06/02 07:53:31;;;;;;;5.97;3.77;;;21.40;38.00;;;;;;5053863;28;20455;-90
2022/06/02 07:56:08;;;;;;;5.37;4.90;;;21.60;38.20;;;;;;5088722;28;20455;-88
2022/06/02 07:58:47;;;;;;;4.20;3.80;;;21.40;36.80;;;;;;5046224;28;20585;-88
2022/06/02 08:01:49;;;;;;;7.53;3.70;;;21.60;37.50;;;;;;5073858;28;20475;-89
2022/06/02 08:04:25;;;;;;;4.53;4.00;;;21.50;37.90;;;;;;5091288;28;20562;-89
2022/06/02 08:07:02;;;;;;;3.40;3.00;;;21.80;37.60;;;;;;5065331;28;20447;-90
2022/06/02 08:09:48;;;;;;;5.20;3.70;;;22.00;36.70;;;;;;5063575;28;20466;-90
2022/06/02 08:12:23;;;;;;;4.20;3.80;;;22.00;35.20;;;;;;5044920;28;20448;-93
2022/06/02 08:15:02;;;;;;;8.13;4.00;;;22.00;34.70;;;;;;5081233;28;20458;-90
2022/06/02 08:17:37;;;;;;;4.93;4.10;;;21.80;34.60;;;;;;5057289;28;20549;-90
2022/06/02 08:20:24;;;;;;;5.00;3.23;;;21.60;35.50;;;;;;5061466;28;20643;-90
2022/06/02 08:22:59;;;;;;;3.90;3.60;;;21.80;35.20;;;;;;5067243;28;20454;-91
2022/06/02 08:25:29;;;;;;;4.20;3.60;;;21.90;35.30;;;;;;5079193;28;20451;-90
2022/06/02 08:28:12;;;;;;;4.63;4.00;;;22.00;33.80;;;;;;5062529;28;20443;-91
2022/06/02 08:30:46;;;;;;;5.10;4.37;;;22.00;33.90;;;;;;5058927;28;20516;-90
2022/06/02 08:33:42;;;;;;;5.00;4.50;;;22.10;34.50;;;;;;5046473;28;20974;-92
2022/06/02 08:36:14;;;;;;;4.77;3.73;;;22.30;33.40;;;;;;5065404;28;20443;-90
2022/06/02 08:38:55;;;;;;;4.00;3.47;;;22.20;32.60;;;;;;5075954;28;21077;-91
2022/06/02 08:41:55;;;;;;;3.57;3.27;;;22.60;32.20;;;;;;5054107;28;20950;-91
2022/06/02 08:45:01;;;;;;;3.47;3.17;;;22.70;32.30;;;;;;5037446;28;20486;-90
2022/06/02 08:48:04;;;;;;;5.63;3.77;;;23.00;33.40;;;;;;5020950;28;20454;-90
2022/06/02 08:51:33;;;;;;;3.77;3.43;;;22.70;33.00;;;;;;5057273;28;20472;-90
2022/06/02 08:54:46;;;;;;;3.10;2.70;;;23.00;33.30;;;;;;5076606;28;20470;-90
2022/06/02 08:57:59;;;;;;;7.50;3.77;;;23.20;33.30;;;;;;5033618;28;20439;-91
2022/06/02 09:00:49;;;;;;;5.80;3.57;;;23.40;33.10;;;;;;5063040;28;20470;-90
2022/06/02 09:03:50;;;;;;;3.80;3.50;;;23.20;31.70;;;;;;5067186;28;20700;-89
2022/06/02 09:06:51;;;;;;;3.53;3.23;;;23.30;31.40;;;;;;5062438;28;21281;-92
2022/06/02 09:09:44;;;;;;;5.53;3.53;;;23.60;32.20;;;;;;5080854;28;20453;-90
2022/06/02 09:12:42;;;;;;;5.50;3.20;;;23.80;31.10;;;;;;5065057;28;20447;-91
2022/06/02 09:15:49;;;;;;;3.27;2.97;;;23.80;31.60;;;;;;5049406;28;20966;-91
2022/06/02 09:18:38;;;;;;;5.93;2.77;;;24.20;30.80;;;;;;4979352;28;20485;-91
2022/06/02 09:21:10;;;;;;;3.23;2.63;;;24.30;29.90;;;;;;5058497;28;20471;-90
2022/06/02 09:23:50;;;;;;;2.33;2.13;;;24.40;30.50;;;;;;5049738;28;20451;-92
2022/06/02 09:26:35;;;;;;;4.83;2.40;;;24.70;32.60;;;;;;5060308;28;20443;-92
2022/06/02 09:29:22;;;;;;;2.47;2.27;;;24.70;30.60;;;;;;5041453;28;20474;-89
2022/06/02 09:32:09;;;;;;;2.57;2.37;;;24.60;30.30;;;;;;5071282;28;20452;-90
2022/06/02 09:34:48;;;;;;;2.70;2.50;;;24.40;29.90;;;;;;5063749;28;20469;-92
2022/06/02 09:37:48;;;;;;;3.00;2.70;;;24.20;30.20;;;;;;5052529;28;20443;-91
2022/06/02 09:40:37;;;;;;;2.40;2.20;;;24.00;30.00;;;;;;5073219;28;20467;-91
2022/06/02 09:43:25;;;;;;;2.87;2.57;;;24.30;30.00;;;;;;5066551;28;20831;-92
2022/06/02 09:46:06;;;;;;;2.60;2.40;;;24.60;32.00;;;;;;5078976;28;20570;-91
2022/06/02 09:48:56;;;;;;;3.70;2.53;;;24.70;30.20;;;;;;5090929;28;20446;-89
2022/06/02 09:51:40;;;;;;;3.53;2.10;;;24.80;30.30;;;;;;5080732;28;20570;-91
2022/06/02 09:54:31;;;;;;;1.90;1.80;;;25.20;31.40;;;;;;5083225;28;20621;-90
2022/06/02 10:00:20;;;;;;;2.40;2.20;;;25.50;29.80;;;;;;5073359;28;20460;-88
2022/06/02 10:03:05;;;;;;;2.33;2.10;;;25.20;29.00;;;;;;5081534;28;20444;-90
2022/06/02 10:06:07;;;;;;;2.10;1.87;;;25.40;28.80;;;;;;5064196;28;20742;-92
2022/06/02 10:08:45;;;;;;;2.00;1.90;;;25.70;29.00;;;;;;5040956;28;20549;-91
2022/06/02 10:11:20;;;;;;;9.33;2.20;;;25.50;29.00;;;;;;5065123;28;20461;-91
2022/06/02 10:14:19;;;;;;;2.20;1.60;;;25.60;28.70;;;;;;5065441;28;20496;-91
2022/06/02 10:17:16;;;;;;;2.10;2.00;;;25.70;29.90;;;;;;5051413;28;20443;-90
2022/06/02 10:20:25;;;;;;;3.03;1.63;;;25.80;29.40;;;;;;5069676;28;20477;-89
2022/06/02 10:23:00;;;;;;;1.80;1.70;;;26.00;29.20;;;;;;5029754;28;20547;-90
2022/06/02 10:25:53;;;;;;;3.60;2.30;;;25.90;28.40;;;;;;5073529;28;20438;-93
2022/06/02 10:29:12;;;;;;;1.87;1.77;;;26.10;28.40;;;;;;5051865;28;20451;-90
2022/06/02 10:32:04;;;;;;;2.03;1.93;;;26.10;28.60;;;;;;5053500;28;20448;-92
2022/06/02 10:35:04;;;;;;;2.33;2.23;;;26.10;28.50;;;;;;5067602;28;20512;-91
2022/06/02 10:37:57;;;;;;;2.87;2.60;;;25.50;28.40;;;;;;5044809;28;20482;-93
2022/06/02 10:40:45;;;;;;;2.50;2.30;;;25.80;28.80;;;;;;5074008;28;20454;-91
2022/06/02 10:43:45;;;;;;;2.80;2.20;;;25.70;28.40;;;;;;5077378;28;20518;-91
2022/06/02 10:46:45;;;;;;;2.13;1.90;;;25.90;27.50;;;;;;5060150;28;21377;-91
2022/06/02 10:49:26;;;;;;;2.00;1.90;;;25.80;29.50;;;;;;5074288;28;20486;-91
2022/06/02 10:52:27;;;;;;;1.73;1.60;;;26.40;28.20;;;;;;5067618;28;20446;-90
2022/06/02 10:55:55;;;;;;;6.57;1.90;;;26.50;27.30;;;;;;5059295;28;20454;-91
2022/06/02 10:58:56;;;;;;;1.60;1.50;;;26.50;26.60;;;;;;5113783;28;20480;-90
2022/06/02 11:01:56;;;;;;;1.70;1.60;;;26.60;28.00;;;;;;5101700;28;21337;-89
2022/06/02 11:05:08;;;;;;;3.00;1.63;;;26.70;27.60;;;;;;5088937;28;20462;-90
2022/06/02 11:08:13;;;;;;;2.13;1.70;;;26.90;27.70;;;;;;5070800;28;20458;-91
2022/06/02 11:10:56;;;;;;;1.83;1.60;;;26.70;27.80;;;;;;5073077;28;20497;-90
2022/06/02 11:14:08;;;;;;;3.10;1.63;;;26.70;27.30;;;;;;5069203;28;20441;-94
2022/06/02 11:17:14;;;;;;;1.60;1.50;;;26.90;27.50;;;;;;5014301;28;20549;-90
2022/06/02 11:20:14;;;;;;;3.13;1.50;;;27.10;26.90;;;;;;5069431;28;20489;-91
2022/06/02 11:23:14;;;;;;;2.23;1.60;;;27.00;27.40;;;;;;5055757;28;21126;-90
2022/06/02 11:26:26;;;;;;;1.60;1.50;;;27.00;27.00;;;;;;5016005;28;20449;-92
2022/06/02 11:29:34;;;;;;;1.80;1.70;;;26.70;27.00;;;;;;5012719;28;21149;-92
2022/06/02 11:32:13;;;;;;;1.70;1.30;;;26.60;27.70;;;;;;5066420;28;21407;-92
2022/06/02 11:35:06;;;;;;;3.90;1.70;;;26.60;28.00;;;;;;5071879;28;20446;-93
2022/06/02 11:38:02;;;;;;;1.50;1.40;;;26.50;27.60;;;;;;5071581;28;20451;-90
2022/06/02 11:40:42;;;;;;;1.53;1.43;;;26.80;28.00;;;;;;5057371;28;20539;-90
2022/06/02 11:43:15;;;;;;;1.87;1.77;;;27.00;27.80;;;;;;5072995;28;20447;-91
2022/06/02 11:46:13;;;;;;;1.60;1.50;;;27.20;27.70;;;;;;5058875;28;20443;-94
2022/06/02 11:49:07;;;;;;;6.40;1.77;;;27.50;26.00;;;;;;5082025;28;20497;-92
2022/06/02 11:52:11;;;;;;;1.30;1.20;;;27.60;25.40;;;;;;5100498;28;20463;-92
2022/06/02 11:55:27;;;;;;;1.50;1.40;;;27.70;25.50;;;;;;5052975;28;20448;-90
2022/06/02 11:58:43;;;;;;;1.60;1.50;;;28.10;26.40;;;;;;5027780;28;20454;-91
2022/06/02 12:01:42;;;;;;;1.43;1.33;;;28.20;25.10;;;;;;5055142;28;20472;-90
2022/06/02 12:04:44;;;;;;;1.57;1.47;;;27.50;26.00;;;;;;5072130;28;20491;-90
2022/06/02 12:07:49;;;;;;;1.30;1.20;;;27.30;26.20;;;;;;5066093;28;20454;-93
2022/06/02 12:11:02;;;;;;;2.03;1.60;;;27.30;25.70;;;;;;5072582;28;20477;-91
2022/06/02 12:13:45;;;;;;;2.07;1.60;;;27.50;26.50;;;;;;5064857;28;20455;-91
2022/06/02 12:16:29;;;;;;;1.60;1.50;;;27.40;25.30;;;;;;5051045;28;20785;-91
2022/06/02 12:19:25;;;;;;;1.80;1.70;;;27.50;26.80;;;;;;5077875;28;20470;-90
2022/06/02 12:22:07;;;;;;;1.80;1.70;;;28.00;26.10;;;;;;5041123;28;21163;-91
2022/06/02 12:25:04;;;;;;;2.43;1.40;;;27.50;24.50;;;;;;5067106;28;20526;-90
2022/06/02 12:28:00;;;;;;;1.57;1.47;;;27.60;25.20;;;;;;5052495;28;20536;-89
2022/06/02 12:30:42;;;;;;;2.00;1.43;;;27.90;26.10;;;;;;5066911;28;20479;-91
2022/06/02 12:33:24;;;;;;;3.33;1.40;;;28.10;25.90;;;;;;5098488;28;20501;-91
2022/06/02 12:36:05;;;;;;;2.57;1.70;;;27.90;25.80;;;;;;5079516;28;20451;-91
2022/06/02 12:39:15;;;;;;;1.43;1.33;;;27.70;25.60;;;;;;5100320;28;20451;-90
2022/06/02 12:42:34;;;;;;;1.30;1.20;;;27.30;26.00;;;;;;5062475;28;20577;-94
2022/06/02 12:45:28;;;;;;;2.13;1.63;;;26.90;26.50;;;;;;5016448;28;20474;-91
2022/06/02 12:48:36;;;;;;;1.33;1.23;;;26.70;26.70;;;;;;5070404;28;20824;-92
2022/06/02 12:51:23;;;;;;;1.67;1.57;;;26.90;27.40;;;;;;5068950;28;20475;-95
2022/06/02 12:54:18;;;;;;;1.50;1.40;;;27.10;26.30;;;;;;5078544;28;20454;-91
2022/06/02 12:57:12;;;;;;;1.50;1.40;;;27.10;25.80;;;;;;5078826;28;20543;-92
2022/06/02 13:00:07;;;;;;;1.73;1.23;;;27.10;26.00;;;;;;5071986;28;20496;-92
2022/06/02 13:02:58;;;;;;;1.80;1.70;;;27.00;25.90;;;;;;5010513;28;20438;-92
2022/06/02 13:06:00;;;;;;;1.60;1.50;;;27.00;26.60;;;;;;5096302;28;20518;-92
2022/06/02 13:09:04;;;;;;;1.73;1.47;;;27.00;26.90;;;;;;5039977;28;20474;-92
2022/06/02 13:12:01;;;;;;;2.17;1.50;;;27.00;26.50;;;;;;5076672;28;20468;-92
2022/06/02 13:14:57;;;;;;;1.47;1.23;;;27.00;26.40;;;;;;5044638;28;20534;-90
2022/06/02 13:17:42;;;;;;;1.53;1.20;;;27.20;26.70;;;;;;5084220;28;20447;-90
2022/06/02 13:20:38;;;;;;;1.50;1.40;;;27.30;25.10;;;;;;5047916;28;20480;-94
2022/06/02 13:23:30;;;;;;;1.50;1.40;;;27.50;25.20;;;;;;5062670;28;21208;-92
2022/06/02 13:26:25;;;;;;;1.70;1.60;;;27.60;25.80;;;;;;5076365;28;20462;-92
2022/06/02 13:29:15;;;;;;;1.70;1.60;;;27.30;25.50;;;;;;5067249;28;20470;-90
2022/06/02 13:32:14;;;;;;;1.90;1.80;;;27.50;25.60;;;;;;5082562;28;21067;-93
2022/06/02 13:35:14;;;;;;;2.33;1.40;;;27.40;24.50;;;;;;5073055;28;20479;-91
2022/06/02 13:38:22;;;;;;;1.50;1.40;;;27.70;25.40;;;;;;5031961;28;20451;-91
2022/06/02 13:41:10;;;;;;;1.50;1.40;;;28.10;26.00;;;;;;5085910;28;20573;-91
2022/06/02 13:43:49;;;;;;;1.70;1.50;;;27.80;25.80;;;;;;5067297;28;20439;-91
2022/06/02 13:46:38;;;;;;;2.07;1.50;;;28.00;24.90;;;;;;5076075;28;20450;-90
2022/06/02 13:49:41;;;;;;;1.70;1.60;;;27.80;24.50;;;;;;5074470;28;20479;-94
2022/06/02 13:52:45;;;;;;;2.50;1.40;;;28.00;24.80;;;;;;5069746;28;20438;-90
2022/06/02 13:58:39;;;;;;;1.50;1.40;;;28.10;26.10;;;;;;5066816;28;20440;-90
2022/06/02 14:01:25;;;;;;;1.40;1.30;;;28.20;23.70;;;;;;5083794;28;21457;-90
2022/06/02 14:04:29;;;;;;;1.43;1.33;;;27.80;23.70;;;;;;5093486;28;20550;-91
2022/06/02 14:07:08;;;;;;;1.40;1.30;;;28.20;24.10;;;;;;5083339;28;20946;-90
2022/06/02 14:09:49;;;;;;;1.50;1.40;;;28.30;23.50;;;;;;5052841;28;20636;-89
2022/06/02 14:12:39;;;;;;;2.90;1.40;;;28.40;24.10;;;;;;5099498;28;20505;-91
2022/06/02 14:15:23;;;;;;;1.60;1.50;;;28.60;24.50;;;;;;5081550;28;20488;-91
2022/06/02 14:18:15;;;;;;;1.93;1.83;;;28.60;23.80;;;;;;5085785;28;20473;-90
2022/06/02 14:20:49;;;;;;;1.20;1.10;;;28.30;23.00;;;;;;5038186;28;20629;-90
2022/06/02 14:23:36;;;;;;;5.53;1.50;;;28.00;23.00;;;;;;5078563;28;20778;-90
2022/06/02 14:26:16;;;;;;;1.60;1.50;;;27.40;23.60;;;;;;5069496;28;20792;-89
2022/06/02 14:29:01;;;;;;;3.77;1.40;;;27.40;23.80;;;;;;5085152;28;20440;-90
2022/06/02 14:31:39;;;;;;;1.30;1.20;;;27.40;24.00;;;;;;5055593;28;21065;-92
2022/06/02 14:34:15;;;;;;;1.57;1.27;;;27.60;23.70;;;;;;5084705;28;20440;-89
2022/06/02 14:36:50;;;;;;;1.40;1.30;;;28.00;24.40;;;;;;5104531;28;20971;-91
2022/06/02 14:39:30;;;;;;;1.50;1.40;;;28.10;24.60;;;;;;5067632;28;20449;-92